Time;durP1;ratioP1;P1;durP2;ratioP2;P2;SDS_P1;SDS_P2;PMS_P1;PMS_P2;Temp;Humidity;BMP_temperature;BMP_pressure;BME280_temperature;BME280_humidity;BME280_pressure;Samples;Min_cycle;Max_cycle;Signal;HPM_P1;HPM_P2
2023/07/11 00:00:43;;;;;;;0.00;0.00;;;21.00;99.90;;;;;;5056065;28;20032;-72
2023/07/11 00:03:10;;;;;;;0.00;0.00;;;21.10;99.90;;;;;;5056329;28;20025;-72
2023/07/11 00:05:36;;;;;;;0.00;0.00;;;21.10;99.90;;;;;;5056422;28;20025;-72
2023/07/11 00:08:02;;;;;;;0.08;0.08;;;21.10;99.90;;;;;;5055915;28;20082;-72
2023/07/11 00:10:28;;;;;;;0.00;0.00;;;21.10;99.90;;;;;;5056210;28;20483;-72
2023/07/11 00:12:54;;;;;;;0.00;0.00;;;20.90;99.90;;;;;;5055825;28;20040;-72
2023/07/11 00:15:20;;;;;;;0.30;0.30;;;20.80;99.90;;;;;;5055980;28;20469;-70
2023/07/11 00:17:47;;;;;;;0.00;0.00;;;20.90;99.90;;;;;;5054448;28;20033;-72
2023/07/11 00:20:14;;;;;;;0.00;0.00;;;20.80;99.90;;;;;;5056040;28;20457;-72
2023/07/11 00:22:42;;;;;;;0.00;0.00;;;20.70;99.90;;;;;;5055452;28;20052;-72
2023/07/11 00:25:09;;;;;;;0.03;0.03;;;20.30;99.90;;;;;;5055663;28;20028;-72
2023/07/11 00:27:35;;;;;;;0.00;0.00;;;20.50;99.90;;;;;;5055723;28;20481;-71
2023/07/11 00:30:02;;;;;;;0.00;0.00;;;20.60;99.90;;;;;;5055836;28;20032;-72
2023/07/11 00:32:28;;;;;;;0.00;0.00;;;20.40;99.90;;;;;;5055761;28;20473;-72
2023/07/11 00:34:53;;;;;;;0.00;0.00;;;20.60;99.90;;;;;;5054028;28;20128;-72
2023/07/11 00:37:19;;;;;;;0.00;0.00;;;20.50;99.90;;;;;;5053921;28;20501;-73
2023/07/11 00:39:45;;;;;;;0.00;0.00;;;20.40;99.90;;;;;;5055672;28;20052;-71
2023/07/11 00:42:11;;;;;;;0.00;0.00;;;20.20;99.90;;;;;;5054178;28;20060;-72
2023/07/11 00:44:50;;;;;;;0.00;0.00;;;20.20;99.90;;;;;;5054205;28;20036;-72
2023/07/11 00:47:16;;;;;;;0.00;0.00;;;20.10;99.90;;;;;;5053803;28;20067;-69
2023/07/11 00:49:43;;;;;;;0.00;0.00;;;20.00;99.90;;;;;;5054268;28;20025;-71
2023/07/11 00:52:09;;;;;;;0.00;0.00;;;20.10;99.90;;;;;;5053848;28;20052;-72
2023/07/11 00:54:36;;;;;;;0.00;0.00;;;20.00;99.90;;;;;;5053916;28;20500;-72
2023/07/11 00:57:07;;;;;;;0.20;0.20;;;20.10;99.90;;;;;;5055545;28;20492;-72
2023/07/11 00:59:32;;;;;;;0.00;0.00;;;19.70;99.90;;;;;;5054049;28;20086;-72
2023/07/11 01:02:11;;;;;;;0.00;0.00;;;19.90;99.90;;;;;;5053827;28;20128;-72
2023/07/11 01:04:38;;;;;;;0.00;0.00;;;19.90;99.90;;;;;;5047074;28;20140;-72
2023/07/11 01:07:08;;;;;;;0.00;0.00;;;20.10;99.90;;;;;;5054907;28;20416;-72
2023/07/11 01:09:35;;;;;;;0.00;0.00;;;20.20;99.90;;;;;;5054830;28;20116;-72
2023/07/11 01:12:06;;;;;;;0.08;0.08;;;19.90;99.90;;;;;;5053778;28;20485;-72
2023/07/11 01:14:33;;;;;;;0.00;0.00;;;20.10;99.90;;;;;;5054941;28;20466;-72
2023/07/11 01:17:00;;;;;;;0.00;0.00;;;19.80;99.90;;;;;;5054733;28;20130;-72
2023/07/11 01:19:26;;;;;;;0.00;0.00;;;19.90;99.90;;;;;;5053635;28;20457;-72
2023/07/11 01:21:52;;;;;;;0.00;0.00;;;19.90;99.90;;;;;;5053265;28;20485;-72
2023/07/11 01:24:19;;;;;;;0.00;0.00;;;19.80;99.90;;;;;;5053471;28;20036;-72
2023/07/11 01:26:45;;;;;;;0.00;0.00;;;20.20;99.90;;;;;;5053481;28;20025;-72
2023/07/11 01:29:11;;;;;;;0.00;0.00;;;20.10;99.90;;;;;;5054588;28;20068;-69
2023/07/11 01:31:39;;;;;;;1.30;1.02;;;19.90;99.90;;;;;;5054600;28;20025;-69
2023/07/11 01:34:07;;;;;;;0.00;0.00;;;19.90;99.90;;;;;;5053934;28;20017;-72
2023/07/11 01:36:33;;;;;;;0.00;0.00;;;19.80;99.90;;;;;;5054737;28;20374;-71
2023/07/11 01:39:00;;;;;;;0.00;0.00;;;19.70;99.90;;;;;;5052841;28;20044;-72
2023/07/11 01:41:26;;;;;;;0.00;0.00;;;19.90;99.90;;;;;;5054318;28;20020;-72
2023/07/11 01:43:53;;;;;;;0.10;0.10;;;19.70;99.90;;;;;;5054296;28;20424;-69
2023/07/11 01:46:19;;;;;;;0.35;0.30;;;19.60;99.90;;;;;;5053251;28;20469;-69
2023/07/11 01:48:45;;;;;;;0.00;0.00;;;19.60;99.90;;;;;;5053824;28;20037;-69
2023/07/11 01:51:11;;;;;;;0.00;0.00;;;19.60;99.90;;;;;;5053725;28;20036;-70
2023/07/11 01:53:37;;;;;;;0.00;0.00;;;19.50;99.90;;;;;;5054466;28;20036;-69
2023/07/11 01:56:04;;;;;;;0.00;0.00;;;19.30;99.90;;;;;;5053926;28;20025;-70
2023/07/11 01:58:32;;;;;;;0.00;0.00;;;19.40;99.90;;;;;;5053035;28;20155;-69
2023/07/11 02:00:58;;;;;;;0.00;0.00;;;19.50;99.90;;;;;;5052592;28;20021;-69
2023/07/11 02:03:25;;;;;;;0.00;0.00;;;19.60;99.90;;;;;;5052923;28;20040;-69
2023/07/11 02:05:53;;;;;;;0.10;0.10;;;19.50;99.90;;;;;;5052249;28;20032;-70
2023/07/11 02:08:19;;;;;;;0.00;0.00;;;19.40;99.90;;;;;;5053870;28;20036;-70
2023/07/11 02:10:45;;;;;;;0.00;0.00;;;19.50;99.90;;;;;;5053758;28;20028;-70
2023/07/11 02:13:11;;;;;;;0.20;0.20;;;19.60;99.90;;;;;;5053897;28;20056;-69
2023/07/11 02:15:41;;;;;;;0.00;0.00;;;19.60;99.90;;;;;;5053703;28;20025;-68
2023/07/11 02:18:07;;;;;;;0.00;0.00;;;19.70;99.90;;;;;;5053509;28;20037;-69
2023/07/11 02:20:32;;;;;;;0.00;0.00;;;19.70;99.90;;;;;;5053551;28;20109;-69
2023/07/11 02:22:59;;;;;;;0.00;0.00;;;19.60;99.90;;;;;;5053664;28;20025;-69
2023/07/11 02:25:26;;;;;;;0.00;0.00;;;19.50;99.90;;;;;;5039869;28;20037;-69
2023/07/11 02:27:51;;;;;;;0.00;0.00;;;19.60;99.90;;;;;;5053710;28;20115;-71
2023/07/11 02:30:17;;;;;;;0.00;0.00;;;19.50;99.90;;;;;;5053475;28;20029;-69
2023/07/11 02:32:43;;;;;;;0.00;0.00;;;19.50;99.90;;;;;;5052276;28;20467;-69
2023/07/11 02:35:09;;;;;;;0.00;0.00;;;19.50;99.90;;;;;;5053215;28;20507;-70
2023/07/11 02:37:35;;;;;;;0.00;0.00;;;19.60;99.90;;;;;;5053578;28;20021;-70
2023/07/11 02:40:01;;;;;;;0.00;0.00;;;19.80;99.90;;;;;;5051913;28;20068;-68
2023/07/11 02:42:26;;;;;;;0.00;0.00;;;19.60;99.90;;;;;;5053515;28;20021;-69
2023/07/11 02:44:52;;;;;;;0.00;0.00;;;19.40;99.90;;;;;;5053412;28;20041;-69
2023/07/11 02:47:18;;;;;;;0.00;0.00;;;19.50;99.90;;;;;;5052984;28;20053;-71
2023/07/11 02:49:44;;;;;;;0.00;0.00;;;19.40;99.90;;;;;;5053350;28;20048;-70
2023/07/11 02:52:10;;;;;;;0.00;0.00;;;19.40;99.90;;;;;;5053041;28;20021;-69
2023/07/11 02:54:37;;;;;;;0.10;0.10;;;19.40;99.90;;;;;;5053231;28;20025;-69
2023/07/11 02:57:05;;;;;;;0.00;0.00;;;19.40;99.90;;;;;;5052824;28;20025;-70
2023/07/11 02:59:31;;;;;;;0.00;0.00;;;19.30;99.90;;;;;;5053345;28;20036;-70
2023/07/11 03:01:58;;;;;;;0.00;0.00;;;19.30;99.90;;;;;;5051937;28;20036;-69
2023/07/11 03:04:25;;;;;;;0.00;0.00;;;19.40;99.90;;;;;;5053054;28;20017;-70
2023/07/11 03:06:56;;;;;;;0.00;0.00;;;19.40;99.90;;;;;;5051769;28;20037;-70
2023/07/11 03:09:23;;;;;;;0.00;0.00;;;19.30;99.90;;;;;;5052862;28;20033;-69
2023/07/11 03:11:50;;;;;;;0.00;0.00;;;19.40;99.90;;;;;;5052525;28;20060;-70
2023/07/11 03:14:17;;;;;;;0.00;0.00;;;19.30;99.90;;;;;;5053102;28;20025;-68
2023/07/11 03:16:43;;;;;;;0.00;0.00;;;19.00;99.90;;;;;;5052675;28;20013;-68
2023/07/11 03:19:09;;;;;;;0.00;0.00;;;19.00;99.90;;;;;;5053079;28;20437;-70
2023/07/11 03:21:35;;;;;;;0.00;0.00;;;18.60;99.90;;;;;;5052546;28;20025;-68
2023/07/11 03:24:01;;;;;;;0.00;0.00;;;18.70;99.90;;;;;;5051560;28;20040;-70
2023/07/11 03:26:27;;;;;;;0.00;0.00;;;18.60;99.90;;;;;;5052681;28;20053;-70
2023/07/11 03:28:53;;;;;;;0.00;0.00;;;18.50;99.90;;;;;;5052898;28;20476;-69
2023/07/11 03:31:20;;;;;;;0.20;0.20;;;18.50;99.90;;;;;;5052699;28;20029;-70
2023/07/11 03:33:49;;;;;;;0.00;0.00;;;18.40;99.90;;;;;;5052561;28;20146;-69
2023/07/11 03:36:14;;;;;;;1.00;0.63;;;18.40;99.90;;;;;;5051167;28;20120;-68
2023/07/11 03:38:40;;;;;;;0.00;0.00;;;18.50;99.90;;;;;;5051590;28;20108;-69
2023/07/11 03:41:06;;;;;;;0.10;0.10;;;18.40;99.90;;;;;;5052566;28;20032;-72
2023/07/11 03:43:32;;;;;;;7.03;1.85;;;18.50;99.90;;;;;;5052298;28;20029;-72
2023/07/11 03:45:58;;;;;;;0.22;0.22;;;18.20;99.90;;;;;;5051549;28;20117;-70
2023/07/11 03:48:24;;;;;;;0.00;0.00;;;18.30;99.90;;;;;;5051560;28;20044;-71
2023/07/11 03:50:49;;;;;;;0.00;0.00;;;18.40;99.90;;;;;;5052073;28;20428;-72
2023/07/11 03:53:15;;;;;;;0.00;0.00;;;18.50;99.90;;;;;;5051072;28;20417;-73
2023/07/11 03:55:44;;;;;;;0.03;0.03;;;18.50;99.90;;;;;;5052390;28;20107;-72
2023/07/11 03:58:10;;;;;;;0.00;0.00;;;18.60;99.90;;;;;;5052121;28;20112;-72
2023/07/11 04:00:36;;;;;;;0.00;0.00;;;18.60;99.90;;;;;;5051947;28;20033;-72
2023/07/11 04:03:01;;;;;;;0.00;0.00;;;18.70;99.90;;;;;;5052090;28;20025;-71
2023/07/11 04:05:28;;;;;;;0.00;0.00;;;18.80;99.90;;;;;;5052229;28;20037;-72
2023/07/11 04:07:54;;;;;;;0.20;0.20;;;18.80;99.90;;;;;;5051919;28;20504;-72
2023/07/11 04:10:20;;;;;;;0.00;0.00;;;18.80;99.90;;;;;;5052166;28;20025;-72
2023/07/11 04:12:45;;;;;;;0.00;0.00;;;18.80;99.90;;;;;;5051878;28;20024;-72
2023/07/11 04:15:13;;;;;;;0.00;0.00;;;18.80;99.90;;;;;;5055367;28;20025;-72
2023/07/11 04:17:39;;;;;;;0.00;0.00;;;18.70;99.90;;;;;;5055849;28;20492;-72
2023/07/11 04:20:06;;;;;;;0.55;0.55;;;18.80;99.90;;;;;;5055759;28;20032;-72
2023/07/11 04:22:32;;;;;;;0.00;0.00;;;19.00;99.90;;;;;;5055726;28;20033;-71
2023/07/11 04:24:57;;;;;;;0.10;0.10;;;19.00;99.90;;;;;;5055543;28;20087;-72
2023/07/11 04:27:25;;;;;;;2.63;0.43;;;19.00;99.90;;;;;;5055702;28;20108;-72
2023/07/11 04:29:51;;;;;;;0.25;0.25;;;18.90;99.90;;;;;;5055602;28;20115;-72
2023/07/11 04:32:16;;;;;;;0.10;0.10;;;18.70;99.90;;;;;;5054299;28;20524;-72
2023/07/11 04:34:42;;;;;;;0.00;0.00;;;18.80;99.90;;;;;;5055523;28;20040;-72
2023/07/11 04:37:08;;;;;;;0.73;0.52;;;18.90;99.90;;;;;;5055539;28;20083;-72
2023/07/11 04:39:34;;;;;;;0.00;0.00;;;18.90;99.90;;;;;;5055744;28;20135;-71
2023/07/11 04:41:59;;;;;;;0.00;0.00;;;18.90;99.90;;;;;;5053881;28;20036;-72
2023/07/11 04:44:26;;;;;;;0.35;0.35;;;19.00;99.90;;;;;;5055354;28;20029;-71
2023/07/11 04:46:52;;;;;;;0.00;0.00;;;18.90;99.90;;;;;;5055434;28;20473;-71
2023/07/11 04:49:17;;;;;;;0.45;0.45;;;19.00;99.90;;;;;;5053851;28;20044;-72
2023/07/11 04:51:43;;;;;;;0.80;0.73;;;19.20;99.90;;;;;;5055554;28;20036;-70
2023/07/11 04:54:09;;;;;;;0.20;0.20;;;19.20;99.90;;;;;;5055209;28;20021;-72
2023/07/11 04:56:39;;;;;;;0.38;0.38;;;19.10;99.90;;;;;;5055081;28;20029;-71
2023/07/11 04:59:04;;;;;;;0.25;0.25;;;19.20;99.90;;;;;;5054978;28;20510;-72
2023/07/11 05:01:30;;;;;;;0.82;0.82;;;19.20;99.90;;;;;;5055087;28;20037;-72
2023/07/11 05:03:56;;;;;;;0.85;0.70;;;19.20;99.90;;;;;;5054686;28;20032;-71
2023/07/11 05:06:22;;;;;;;0.73;0.57;;;19.20;99.90;;;;;;5055296;28;20039;-72
2023/07/11 05:08:48;;;;;;;0.10;0.10;;;19.30;99.90;;;;;;5054894;28;20033;-72
2023/07/11 05:11:17;;;;;;;0.55;0.40;;;19.30;99.90;;;;;;5054637;28;20064;-71
2023/07/11 05:13:45;;;;;;;0.10;0.10;;;19.30;99.90;;;;;;5054885;28;20040;-72
2023/07/11 05:16:17;;;;;;;0.52;0.38;;;19.30;99.90;;;;;;5054641;28;20052;-71
2023/07/11 05:18:43;;;;;;;0.17;0.17;;;19.40;99.90;;;;;;5055088;28;20427;-72
2023/07/11 05:21:11;;;;;;;0.43;0.43;;;19.50;99.90;;;;;;5054782;28;20052;-72
2023/07/11 05:23:37;;;;;;;0.45;0.45;;;19.50;99.90;;;;;;5054688;28;20029;-72
2023/07/11 05:26:05;;;;;;;0.20;0.20;;;19.50;99.90;;;;;;5053888;28;20461;-72
2023/07/11 05:28:30;;;;;;;3.58;0.80;;;19.70;99.90;;;;;;5053303;28;20413;-72
2023/07/11 05:30:56;;;;;;;0.25;0.25;;;19.70;99.90;;;;;;5054767;28;20040;-72
2023/07/11 05:33:23;;;;;;;0.20;0.10;;;19.80;99.90;;;;;;5053384;28;20025;-71
2023/07/11 05:36:07;;;;;;;2.45;1.25;;;19.80;99.90;;;;;;5054329;28;20077;-71
2023/07/11 05:38:34;;;;;;;0.10;0.10;;;19.90;99.90;;;;;;5054334;28;20040;-71
2023/07/11 05:41:02;;;;;;;0.52;0.47;;;19.70;99.90;;;;;;5053253;28;20385;-91
2023/07/11 05:43:28;;;;;;;0.20;0.20;;;19.90;99.90;;;;;;5063656;28;20032;-89
2023/07/11 05:45:54;;;;;;;0.10;0.10;;;20.00;99.90;;;;;;5064636;28;20047;-88
2023/07/11 05:48:19;;;;;;;0.20;0.20;;;20.00;99.90;;;;;;5063629;28;20028;-90
2023/07/11 05:50:55;;;;;;;0.00;0.00;;;20.20;99.90;;;;;;5059560;28;20025;-91
2023/07/11 05:53:23;;;;;;;0.13;0.13;;;20.20;99.90;;;;;;5063362;28;20354;-91
2023/07/11 05:55:49;;;;;;;3.83;0.52;;;20.30;99.90;;;;;;5057661;28;20432;-89
2023/07/11 05:58:15;;;;;;;0.38;0.35;;;20.50;99.90;;;;;;5061241;28;20029;-87
2023/07/11 06:00:41;;;;;;;0.57;0.45;;;20.60;99.90;;;;;;5058558;28;20025;-88
2023/07/11 06:03:07;;;;;;;0.20;0.20;;;20.50;99.90;;;;;;5059073;28;20029;-89
2023/07/11 06:05:34;;;;;;;5.72;1.63;;;20.70;99.90;;;;;;5059063;28;20109;-91
2023/07/11 06:08:01;;;;;;;0.20;0.20;;;20.60;99.90;;;;;;5060809;28;20116;-91
2023/07/11 06:10:28;;;;;;;6.03;5.53;;;20.70;99.90;;;;;;5062806;28;20028;-86
2023/07/11 06:12:54;;;;;;;1.23;0.65;;;20.70;99.90;;;;;;5061895;28;20051;-89
2023/07/11 06:15:21;;;;;;;1.25;0.35;;;20.60;99.90;;;;;;5044694;28;20028;-90
2023/07/11 06:17:47;;;;;;;1.70;0.85;;;20.70;99.90;;;;;;5066167;28;20021;-91
2023/07/11 06:20:13;;;;;;;0.40;0.40;;;20.80;99.90;;;;;;5065188;28;20538;-86
2023/07/11 06:22:39;;;;;;;0.55;0.30;;;20.80;99.90;;;;;;5060884;28;20106;-93
2023/07/11 06:25:05;;;;;;;0.00;0.00;;;20.90;99.90;;;;;;5058599;28;20013;-89
2023/07/11 06:27:31;;;;;;;3.20;0.45;;;21.00;99.90;;;;;;5067938;28;20029;-90
2023/07/11 06:29:56;;;;;;;0.22;0.22;;;21.20;99.90;;;;;;5065915;28;20044;-88
2023/07/11 06:32:22;;;;;;;0.25;0.25;;;21.40;99.90;;;;;;5042030;28;20069;-90
2023/07/11 06:34:48;;;;;;;3.05;0.73;;;21.20;99.90;;;;;;5058362;28;20037;-91
2023/07/11 06:37:14;;;;;;;1.35;1.20;;;21.30;99.90;;;;;;5055948;28;20443;-83
2023/07/11 06:39:39;;;;;;;5.30;0.85;;;21.50;99.90;;;;;;5067224;28;20020;-86
2023/07/11 06:42:06;;;;;;;1.30;1.20;;;21.60;99.90;;;;;;5055486;28;20428;-89
2023/07/11 06:44:35;;;;;;;0.00;0.00;;;21.70;99.90;;;;;;5055463;28;20189;-84
2023/07/11 06:47:01;;;;;;;2.55;0.82;;;21.90;99.90;;;;;;5053775;28;20488;-89
2023/07/11 06:49:27;;;;;;;0.15;0.15;;;22.20;99.90;;;;;;5061422;28;20055;-80
2023/07/11 06:51:52;;;;;;;0.52;0.52;;;22.30;99.90;;;;;;5058248;28;20021;-82
2023/07/11 06:54:18;;;;;;;0.10;0.10;;;22.50;99.90;;;;;;5058673;28;20116;-81
2023/07/11 06:56:44;;;;;;;0.20;0.20;;;22.60;99.90;;;;;;5054854;28;20025;-80
2023/07/11 06:59:11;;;;;;;0.00;0.00;;;22.70;99.90;;;;;;5055184;28;20067;-79
2023/07/11 07:01:37;;;;;;;0.10;0.10;;;22.80;99.90;;;;;;5069837;28;20111;-79
2023/07/11 07:04:05;;;;;;;1.05;0.57;;;23.10;99.90;;;;;;5065388;28;20065;-80
2023/07/11 07:06:31;;;;;;;0.00;0.00;;;23.00;99.90;;;;;;5057651;28;20112;-79
2023/07/11 07:08:57;;;;;;;2.80;0.98;;;23.20;99.90;;;;;;5055241;28;20127;-81
2023/07/11 07:11:22;;;;;;;0.45;0.45;;;23.10;99.90;;;;;;5054245;28;20051;-81
2023/07/11 07:13:51;;;;;;;0.22;0.22;;;23.00;99.90;;;;;;5058496;28;20059;-80
2023/07/11 07:16:17;;;;;;;0.65;0.65;;;23.10;99.90;;;;;;5062561;28;20040;-72
2023/07/11 07:18:44;;;;;;;0.00;0.00;;;23.10;99.90;;;;;;5060179;28;20377;-74
2023/07/11 07:21:09;;;;;;;3.60;0.55;;;23.30;99.90;;;;;;5050968;28;20150;-74
2023/07/11 07:23:36;;;;;;;3.85;1.05;;;23.40;99.90;;;;;;5052592;28;20508;-76
2023/07/11 07:26:03;;;;;;;0.25;0.25;;;23.30;99.90;;;;;;5052413;28;20020;-75
2023/07/11 07:28:30;;;;;;;0.38;0.10;;;23.50;99.90;;;;;;5052716;28;20044;-71
2023/07/11 07:30:57;;;;;;;0.52;0.10;;;23.60;99.90;;;;;;5052609;28;20029;-73
2023/07/11 07:33:24;;;;;;;0.00;0.00;;;23.80;99.90;;;;;;5051101;28;20025;-68
2023/07/11 07:35:58;;;;;;;1.92;1.15;;;24.10;99.90;;;;;;5051590;28;20025;-67
2023/07/11 07:38:27;;;;;;;0.40;0.40;;;24.00;99.90;;;;;;5052070;28;20063;-68
2023/07/11 07:40:54;;;;;;;0.30;0.30;;;23.90;99.90;;;;;;5052467;28;20017;-69
2023/07/11 07:43:20;;;;;;;0.00;0.00;;;23.80;99.90;;;;;;5052268;28;20025;-68
2023/07/11 07:45:50;;;;;;;0.80;0.70;;;24.20;99.90;;;;;;5052486;28;20040;-65
2023/07/11 07:48:17;;;;;;;1.10;0.95;;;24.10;99.90;;;;;;5052999;28;20039;-68
2023/07/11 07:50:44;;;;;;;0.47;0.47;;;24.10;99.90;;;;;;5056362;28;20502;-68
2023/07/11 07:53:11;;;;;;;0.30;0.30;;;24.20;99.90;;;;;;5056563;28;20017;-69
2023/07/11 07:55:38;;;;;;;2.63;1.40;;;24.20;99.90;;;;;;5056457;28;20120;-68
2023/07/11 07:58:04;;;;;;;0.45;0.43;;;24.10;99.90;;;;;;5056368;28;20031;-69
2023/07/11 08:00:30;;;;;;;5.30;1.48;;;24.20;99.90;;;;;;5054936;28;20021;-67
2023/07/11 08:02:56;;;;;;;1.50;0.40;;;24.10;99.90;;;;;;5056387;28;20064;-67
2023/07/11 08:05:22;;;;;;;0.10;0.10;;;24.10;99.90;;;;;;5056243;28;20065;-68
2023/07/11 08:07:48;;;;;;;0.32;0.32;;;24.20;99.90;;;;;;5056111;28;20423;-68
2023/07/11 08:10:16;;;;;;;3.17;0.77;;;24.40;99.90;;;;;;5056305;28;20036;-68
2023/07/11 08:12:43;;;;;;;1.23;1.23;;;24.60;99.90;;;;;;5054741;28;20028;-68
2023/07/11 08:15:11;;;;;;;0.50;0.50;;;24.90;99.90;;;;;;5056043;28;20377;-68
2023/07/11 08:17:38;;;;;;;4.43;0.73;;;25.00;99.90;;;;;;5056256;28;20036;-69
2023/07/11 08:20:04;;;;;;;1.75;0.60;;;25.00;99.90;;;;;;5055762;28;20032;-69
2023/07/11 08:22:30;;;;;;;0.40;0.40;;;25.10;99.90;;;;;;5055938;28;20029;-69
2023/07/11 08:24:56;;;;;;;1.38;0.82;;;25.00;99.90;;;;;;5055962;28;20027;-68
2023/07/11 08:27:22;;;;;;;2.40;1.65;;;25.20;99.90;;;;;;5055829;28;20044;-68
2023/07/11 08:29:48;;;;;;;0.40;0.40;;;24.70;99.90;;;;;;5055661;28;20469;-68
2023/07/11 08:32:15;;;;;;;3.35;1.38;;;24.80;99.90;;;;;;5055892;28;20021;-68
2023/07/11 08:34:43;;;;;;;0.00;0.00;;;24.80;99.90;;;;;;5055422;28;20110;-69
2023/07/11 08:37:09;;;;;;;0.40;0.30;;;25.20;99.90;;;;;;5055843;28;20068;-69
2023/07/11 08:39:37;;;;;;;8.05;1.02;;;25.30;99.70;;;;;;5055735;28;20037;-68
2023/07/11 08:42:17;;;;;;;1.08;0.88;;;25.50;99.90;;;;;;5055624;28;20021;-69
2023/07/11 08:44:55;;;;;;;0.20;0.20;;;25.60;99.80;;;;;;5054264;28;20037;-67
2023/07/11 08:47:32;;;;;;;0.55;0.32;;;25.70;99.90;;;;;;5055631;28;20037;-68
2023/07/11 08:50:00;;;;;;;6.90;1.30;;;25.70;99.60;;;;;;5055254;28;20036;-67
2023/07/11 08:52:28;;;;;;;3.97;0.95;;;25.50;99.00;;;;;;5055132;28;20021;-69
2023/07/11 08:55:18;;;;;;;2.13;1.42;;;25.30;99.80;;;;;;5055008;28;20021;-69
2023/07/11 08:58:05;;;;;;;1.83;0.75;;;25.50;99.60;;;;;;5055301;28;20021;-67
2023/07/11 09:00:32;;;;;;;4.43;0.80;;;25.40;99.70;;;;;;5052833;28;20037;-70
2023/07/11 09:03:10;;;;;;;1.25;0.75;;;25.40;99.40;;;;;;5054684;28;20021;-71
2023/07/11 09:05:50;;;;;;;0.10;0.10;;;25.40;99.40;;;;;;5054776;28;20025;-70
2023/07/11 09:08:20;;;;;;;1.58;1.08;;;25.90;99.40;;;;;;5054822;28;20044;-71
2023/07/11 09:10:58;;;;;;;7.60;1.13;;;26.10;98.20;;;;;;5054827;28;20165;-71
2023/07/11 09:13:32;;;;;;;1.35;0.50;;;26.10;99.10;;;;;;5054810;28;20397;-71
2023/07/11 09:16:17;;;;;;;1.92;1.20;;;26.30;98.40;;;;;;5054893;28;20041;-71
2023/07/11 09:18:55;;;;;;;4.93;1.23;;;26.60;98.00;;;;;;5054565;28;20025;-70
2023/07/11 09:21:41;;;;;;;3.58;1.25;;;26.40;98.70;;;;;;5054676;28;20028;-70
2023/07/11 09:24:34;;;;;;;4.18;1.08;;;26.20;98.00;;;;;;5054359;28;20438;-70
2023/07/11 09:27:09;;;;;;;5.05;1.23;;;26.30;98.60;;;;;;5054651;28;20382;-70
2023/07/11 09:29:35;;;;;;;3.28;1.30;;;26.30;98.00;;;;;;5054578;28;20049;-70
2023/07/11 09:32:03;;;;;;;3.20;0.90;;;26.30;98.30;;;;;;5054220;28;20472;-71
2023/07/11 09:34:38;;;;;;;0.52;0.52;;;26.20;98.60;;;;;;5054252;28;20411;-70
2023/07/11 09:37:14;;;;;;;1.35;0.65;;;26.40;98.40;;;;;;5054506;28;20028;-70
2023/07/11 09:39:52;;;;;;;0.25;0.25;;;26.40;98.20;;;;;;5054367;28;20091;-71
2023/07/11 09:42:34;;;;;;;1.67;1.50;;;26.50;98.00;;;;;;5054512;28;20025;-70
2023/07/11 09:45:07;;;;;;;3.90;0.50;;;26.30;97.80;;;;;;5054057;28;20029;-70
2023/07/11 09:47:33;;;;;;;2.13;1.33;;;26.30;98.50;;;;;;5054072;28;20075;-70
2023/07/11 09:50:01;;;;;;;3.53;1.30;;;26.20;98.10;;;;;;5054233;28;20037;-70
2023/07/11 09:52:28;;;;;;;7.10;1.38;;;26.20;98.00;;;;;;5054124;28;20155;-71
2023/07/11 09:54:55;;;;;;;5.97;1.42;;;26.10;97.80;;;;;;5054144;28;20017;-71
2023/07/11 09:57:22;;;;;;;2.75;1.17;;;26.10;98.50;;;;;;5054197;28;20044;-70
2023/07/11 09:59:59;;;;;;;4.70;1.40;;;26.40;97.90;;;;;;5053932;28;20032;-71
2023/07/11 10:02:25;;;;;;;0.17;0.17;;;26.40;97.90;;;;;;5053631;28;20032;-70
2023/07/11 10:04:56;;;;;;;2.35;0.98;;;26.40;98.40;;;;;;5054031;28;20071;-70
2023/07/11 10:07:23;;;;;;;3.10;0.45;;;26.80;97.90;;;;;;5053977;28;20021;-70
2023/07/11 10:10:02;;;;;;;17.20;0.93;;;27.00;97.90;;;;;;5053649;28;20033;-70
2023/07/11 10:12:29;;;;;;;0.10;0.10;;;27.30;97.70;;;;;;5053350;28;20029;-69
2023/07/11 10:15:00;;;;;;;1.35;0.43;;;27.60;97.10;;;;;;5053314;28;20029;-70
2023/07/11 10:17:31;;;;;;;;;;;27.60;96.80;;;;;;5053954;28;20029;-71
2023/07/11 10:19:59;;;;;;;6.15;1.05;;;27.20;97.80;;;;;;5053364;28;20399;-70
2023/07/11 10:22:30;;;;;;;2.60;0.93;;;27.60;97.40;;;;;;5053498;28;20528;-71
2023/07/11 10:25:27;;;;;;;1.20;1.10;;;27.60;96.30;;;;;;5053217;28;20040;-70
2023/07/11 10:27:56;;;;;;;4.22;1.38;;;27.50;96.60;;;;;;5051715;28;20037;-71
2023/07/11 10:30:27;;;;;;;0.30;0.30;;;27.20;96.40;;;;;;5053151;28;20465;-71
2023/07/11 10:33:02;;;;;;;2.03;0.63;;;27.30;97.30;;;;;;5051980;28;20032;-71
2023/07/11 10:35:30;;;;;;;0.55;0.55;;;27.70;96.40;;;;;;5052884;28;20059;-71
2023/07/11 10:38:04;;;;;;;0.38;0.38;;;27.80;95.80;;;;;;5052097;28;20029;-71
2023/07/11 10:40:38;;;;;;;5.18;1.70;;;27.30;96.20;;;;;;5053030;28;20052;-71
2023/07/11 10:43:27;;;;;;;1.40;0.40;;;27.10;96.60;;;;;;5052981;28;20473;-75
2023/07/11 10:46:18;;;;;;;4.97;0.70;;;27.40;96.80;;;;;;5052373;28;20033;-75
2023/07/11 10:48:56;;;;;;;2.00;1.00;;;27.50;95.60;;;;;;5053120;28;20033;-72
2023/07/11 10:51:36;;;;;;;2.42;1.10;;;28.20;95.30;;;;;;5052986;28;20044;-71
2023/07/11 10:54:24;;;;;;;0.52;0.52;;;27.60;95.40;;;;;;5052764;28;20100;-72
2023/07/11 10:56:59;;;;;;;3.45;1.00;;;27.60;96.30;;;;;;5052808;28;20039;-72
2023/07/11 10:59:28;;;;;;;1.50;0.65;;;28.00;95.80;;;;;;5052748;28;20477;-72
2023/07/11 11:02:10;;;;;;;1.92;1.00;;;28.10;95.50;;;;;;5052793;28;20363;-72
2023/07/11 11:04:48;;;;;;;0.47;0.47;;;28.00;95.40;;;;;;5053010;28;20025;-71
2023/07/11 11:07:32;;;;;;;1.55;0.60;;;28.20;95.40;;;;;;5051307;28;20098;-71
2023/07/11 11:10:13;;;;;;;0.15;0.15;;;28.20;95.20;;;;;;5052805;28;20182;-72
2023/07/11 11:12:58;;;;;;;3.13;1.02;;;28.30;95.70;;;;;;5052809;28;20373;-71
2023/07/11 11:15:59;;;;;;;1.42;0.63;;;27.70;95.50;;;;;;5052206;28;20032;-71
2023/07/11 11:18:49;;;;;;;2.25;1.48;;;28.00;95.60;;;;;;5050202;28;20033;-71
2023/07/11 11:21:18;;;;;;;0.25;0.17;;;28.50;94.90;;;;;;5052579;28;20056;-71
2023/07/11 11:23:57;;;;;;;7.10;1.20;;;28.90;94.70;;;;;;5052012;28;20029;-72
2023/07/11 11:26:31;;;;;;;1.02;0.57;;;28.50;94.50;;;;;;5036652;28;20493;-71
2023/07/11 11:29:11;;;;;;;1.55;1.27;;;28.30;94.80;;;;;;5052608;28;20041;-71
2023/07/11 11:31:49;;;;;;;0.40;0.40;;;28.30;94.40;;;;;;5052431;28;20055;-71
2023/07/11 11:34:26;;;;;;;14.82;1.42;;;28.40;94.70;;;;;;5052330;28;20029;-71
2023/07/11 11:37:00;;;;;;;0.73;0.50;;;28.00;94.90;;;;;;5052242;28;20086;-71
2023/07/11 11:39:49;;;;;;;0.98;0.80;;;28.00;95.30;;;;;;5052513;28;20026;-71
2023/07/11 11:42:27;;;;;;;0.60;0.52;;;28.10;95.20;;;;;;5052234;28;20025;-71
2023/07/11 11:44:58;;;;;;;0.03;0.03;;;28.20;95.30;;;;;;5052416;28;20025;-71
2023/07/11 11:47:27;;;;;;;1.17;0.93;;;28.60;94.80;;;;;;5052322;28;20476;-72
2023/07/11 11:49:53;;;;;;;0.70;0.70;;;29.10;94.10;;;;;;5052202;28;20086;-69
2023/07/11 11:52:22;;;;;;;6.63;1.08;;;28.90;94.00;;;;;;5052222;28;20039;-69
2023/07/11 11:54:48;;;;;;;5.18;0.80;;;28.70;94.40;;;;;;5052412;28;20033;-71
2023/07/11 11:57:24;;;;;;;2.67;0.80;;;28.80;94.80;;;;;;5052360;28;20037;-72
2023/07/11 11:59:51;;;;;;;0.20;0.20;;;29.00;94.40;;;;;;5051107;28;20380;-72
2023/07/11 12:02:27;;;;;;;0.82;0.82;;;28.50;94.80;;;;;;5052078;28;20029;-71
2023/07/11 12:04:58;;;;;;;1.45;1.35;;;28.90;94.80;;;;;;5052561;28;20381;-71
2023/07/11 12:07:30;;;;;;;8.60;1.30;;;29.00;94.70;;;;;;5052153;28;20041;-72
2023/07/11 12:09:56;;;;;;;4.43;1.33;;;28.90;94.20;;;;;;5052187;28;20045;-71
2023/07/11 12:12:37;;;;;;;2.38;1.08;;;28.60;94.30;;;;;;5051812;28;20029;-71
2023/07/11 12:15:11;;;;;;;3.13;1.10;;;28.50;94.80;;;;;;5051778;28;20033;-71
2023/07/11 12:17:39;;;;;;;0.30;0.30;;;28.70;94.80;;;;;;5052085;28;20302;-71
2023/07/11 12:20:05;;;;;;;4.45;1.33;;;29.30;94.20;;;;;;5052241;28;20037;-71
2023/07/11 12:22:37;;;;;;;0.10;0.10;;;29.40;93.70;;;;;;5052091;28;20106;-70
2023/07/11 12:25:06;;;;;;;6.97;1.13;;;29.50;94.30;;;;;;5052618;28;20025;-71
2023/07/11 12:27:34;;;;;;;1.58;0.90;;;29.40;93.40;;;;;;5051993;28;20033;-71
2023/07/11 12:30:26;;;;;;;3.03;1.00;;;29.50;93.50;;;;;;5050569;28;20037;-67
2023/07/11 12:32:55;;;;;;;;;;;29.90;93.10;;;;;;5050896;28;20036;-69
2023/07/11 12:35:24;;;;;;;4.03;0.73;;;29.90;93.10;;;;;;5054049;28;19912;-70
2023/07/11 12:38:02;;;;;;;2.08;0.65;;;29.70;92.80;;;;;;5054429;28;20032;-69
2023/07/11 12:40:47;;;;;;;0.40;0.40;;;29.70;93.20;;;;;;5054912;28;20025;-65
2023/07/11 12:43:18;;;;;;;1.65;0.52;;;29.30;93.30;;;;;;5055556;28;20033;-66
2023/07/11 12:45:49;;;;;;;7.90;1.30;;;29.00;93.60;;;;;;5052870;28;20142;-67
2023/07/11 12:48:21;;;;;;;0.60;0.60;;;28.90;93.80;;;;;;5055051;28;20037;-66
2023/07/11 12:50:51;;;;;;;1.88;0.52;;;29.40;93.60;;;;;;5057582;28;20024;-67
2023/07/11 12:53:17;;;;;;;3.92;0.40;;;29.70;93.20;;;;;;5050356;28;20056;-66
2023/07/11 12:55:45;;;;;;;0.22;0.22;;;29.60;92.90;;;;;;5060532;28;20465;-67
2023/07/11 12:58:22;;;;;;;0.63;0.63;;;29.60;92.80;;;;;;5055957;28;20029;-67